createdAt,value
2022-08-17T00:09:32.143Z,21.3
2022-08-17T00:39:34.106Z,21
2022-08-17T00:49:34.234Z,21.1
2022-08-17T00:59:34.376Z,20.9
2022-08-17T01:19:35.332Z,20.7
2022-08-17T01:29:35.594Z,20.6
2022-08-17T01:39:35.759Z,20.5
2022-08-17T01:49:36.367Z,20.4
2022-08-17T01:59:36.492Z,20.3
2022-08-17T02:09:37.100Z,20.2
2022-08-17T02:29:38.363Z,19.9
2022-08-17T02:39:38.639Z,19.8
2022-08-17T02:49:38.899Z,19.6
2022-08-17T02:59:39.104Z,19.3
2022-08-17T03:09:39.995Z,19.2
2022-08-17T03:19:42.943Z,19.2
2022-08-17T03:29:40.824Z,19.1
2022-08-17T03:49:41.966Z,18.9
2022-08-17T03:59:42.295Z,18.8
2022-08-17T04:09:42.809Z,18.8
2022-08-17T04:29:44.674Z,18.8
2022-08-17T04:39:44.775Z,18.8
2022-08-17T04:49:45.465Z,18.7
2022-08-17T04:59:45.618Z,18.8
2022-08-17T05:09:45.725Z,19
2022-08-17T05:19:50.052Z,19.2
2022-08-17T05:29:46.494Z,19.5
2022-08-17T05:39:46.874Z,19.7
2022-08-17T05:49:48.947Z,19.7
2022-08-17T05:59:47.281Z,20.1
2022-08-17T06:19:47.589Z,20.3
2022-08-17T06:29:47.912Z,20.8
2022-08-17T06:39:48.053Z,21.7
2022-08-17T06:49:51.898Z,22.2
2022-08-17T07:09:49.434Z,22.2
2022-08-17T07:19:50.159Z,22.5
2022-08-17T07:29:50.832Z,22.6
2022-08-17T07:39:59.080Z,22.8
2022-08-17T07:49:52.466Z,22.9
2022-08-17T07:59:53.258Z,23
2022-08-17T08:09:54.052Z,23.6
2022-08-17T08:19:54.180Z,24.1
2022-08-17T08:29:54.406Z,24.4
2022-08-17T08:50:04.633Z,25.1
2022-08-17T08:59:58.088Z,25.7
2022-08-17T09:09:59.264Z,26.2
2022-08-17T09:19:57.498Z,26.6
2022-08-17T09:29:58.486Z,26.9
2022-08-17T09:39:58.927Z,26.8
2022-08-17T09:49:59.369Z,26.9
2022-08-17T09:59:59.818Z,26.9
2022-08-17T10:20:01.172Z,26.9
2022-08-17T10:30:00.975Z,26.6
2022-08-17T10:40:01.815Z,26.4
2022-08-17T10:50:02.073Z,26.3
2022-08-17T11:00:02.625Z,26.1
2022-08-17T11:10:02.866Z,26
2022-08-17T11:20:03.041Z,25.7
2022-08-17T11:30:03.327Z,25.4
2022-08-17T11:40:03.717Z,25.2
2022-08-17T11:50:04.297Z,25
2022-08-17T12:00:04.823Z,25.1
2022-08-17T12:10:05.153Z,24.9
2022-08-17T12:20:05.921Z,24.8
2022-08-17T12:30:06.939Z,24.6
2022-08-17T12:40:07.974Z,24.9
2022-08-17T12:50:08.143Z,24.9
2022-08-17T13:10:09.606Z,25.4
2022-08-17T13:20:10.217Z,25.9
2022-08-17T13:30:10.352Z,26.1
2022-08-17T13:40:11.428Z,26.1
2022-08-17T13:50:12.051Z,27.2
2022-08-17T13:50:17.766Z,27.1
2022-08-17T14:10:19.295Z,26.3
2022-08-17T14:50:21.099Z,26.5
2022-08-17T15:00:21.871Z,26.5
2022-08-17T15:10:24.748Z,26.5
2022-08-17T15:30:24.276Z,26.2
2022-08-17T15:40:24.533Z,26.1
2022-08-17T15:50:31.775Z,26.1
2022-08-17T16:00:25.383Z,25.6
2022-08-17T16:10:34.563Z,25.6
2022-08-17T16:20:25.642Z,25.6
2022-08-17T16:30:25.728Z,25.6
2022-08-17T16:40:25.940Z,25.1
2022-08-17T16:50:26.057Z,25.5
2022-08-17T17:00:26.122Z,25.5
2022-08-17T17:10:26.333Z,25.3
2022-08-17T17:20:26.693Z,25.1
2022-08-17T17:40:27.836Z,24.8
2022-08-17T17:50:28.760Z,24.6
2022-08-17T18:00:29.757Z,24.3
2022-08-17T18:10:31.710Z,24.4
2022-08-17T18:20:32.579Z,24.1
2022-08-17T18:40:32.244Z,23.6
2022-08-17T18:50:32.387Z,23.4
2022-08-17T19:00:32.446Z,23.2
2022-08-17T19:10:32.648Z,22.9
2022-08-17T19:20:33.633Z,22.7
2022-08-17T19:30:34.479Z,22.8
2022-08-17T19:40:52.081Z,22.7
2022-08-17T19:50:35.045Z,22.5
2022-08-17T20:00:35.979Z,22.3
2022-08-17T20:10:36.466Z,22
2022-08-17T20:20:37.371Z,21.9
2022-08-17T20:30:37.870Z,22
2022-08-17T20:40:38.267Z,21.8
2022-08-17T20:50:38.432Z,21.6
2022-08-17T21:00:38.440Z,21.3
2022-08-17T21:10:39.118Z,21.3
2022-08-17T21:20:39.938Z,21.3
2022-08-17T21:30:40.984Z,21.2
2022-08-17T21:40:40.448Z,21
2022-08-17T22:00:41.499Z,20.3
2022-08-17T22:10:41.614Z,19.8
2022-08-17T22:20:42.494Z,20.1
2022-08-17T22:30:42.999Z,20
2022-08-17T22:40:43.426Z,20
2022-08-17T22:50:43.898Z,19.9
2022-08-17T23:00:44.023Z,19.9
2022-08-17T23:10:44.425Z,19.8
2022-08-17T23:20:45.136Z,19.8
2022-08-17T23:30:45.814Z,19.7
2022-08-17T23:50:46.140Z,19.5
